Time;durP1;ratioP1;P1;durP2;ratioP2;P2;SDS_P1;SDS_P2;PMS_P1;PMS_P2;Temp;Humidity;BMP_temperature;BMP_pressure;BME280_temperature;BME280_humidity;BME280_pressure;Samples;Min_cycle;Max_cycle;Signal;HPM_P1;HPM_P2
2023/10/30 00:01:42;;;;;;;4.65;1.50;;;;;;;12.77;47.59;94278.28;5008506;28;20030;-85
2023/10/30 00:04:07;;;;;;;3.28;1.40;;;;;;;12.73;47.78;94264.00;4995164;28;20485;-84
2023/10/30 00:06:33;;;;;;;6.50;1.30;;;;;;;12.80;47.50;94266.22;4995935;28;20065;-85
2023/10/30 00:08:58;;;;;;;1.95;1.17;;;;;;;12.81;47.46;94260.53;4998293;28;20033;-84
2023/10/30 00:11:24;;;;;;;2.78;1.23;;;;;;;12.93;47.25;94280.47;4992550;28;20053;-85
2023/10/30 00:13:49;;;;;;;4.85;1.40;;;;;;;12.66;47.27;94242.34;4992894;28;20026;-85
2023/10/30 00:16:15;;;;;;;5.40;1.30;;;;;;;12.88;47.12;94266.19;5008802;28;20528;-85
2023/10/30 00:18:42;;;;;;;3.00;1.25;;;;;;;12.46;47.40;94197.59;4994083;28;20013;-85
2023/10/30 00:21:11;;;;;;;2.17;1.23;;;;;;;12.84;47.38;94249.25;4993543;28;20919;-85
2023/10/30 00:23:36;;;;;;;2.53;1.50;;;;;;;12.88;47.29;94262.72;4991745;28;20038;-85
2023/10/30 00:26:04;;;;;;;5.13;1.60;;;;;;;12.91;47.73;94267.44;4989861;28;20038;-85
2023/10/30 00:28:34;;;;;;;3.17;1.50;;;;;;;12.79;47.88;94264.63;4992102;28;20073;-84
2023/10/30 00:31:00;;;;;;;2.63;1.23;;;;;;;12.51;47.85;94231.34;5025930;28;20038;-84
2023/10/30 00:33:25;;;;;;;4.07;1.67;;;;;;;11.61;48.09;94108.50;4992397;28;20037;-85
2023/10/30 00:35:51;;;;;;;4.63;1.92;;;;;;;12.73;47.66;94277.34;4990899;28;20031;-84
2023/10/30 00:38:16;;;;;;;5.90;1.77;;;;;;;12.62;48.04;94260.06;4996235;28;20891;-85
2023/10/30 00:40:42;;;;;;;7.22;1.92;;;;;;;12.33;48.02;94233.22;4991552;28;20045;-84
2023/10/30 00:43:07;;;;;;;3.80;2.03;;;;;;;12.42;48.19;94239.31;5025976;28;20086;-84
2023/10/30 00:45:32;;;;;;;5.03;2.17;;;;;;;12.62;47.94;94270.75;4996743;28;20042;-85
2023/10/30 00:47:58;;;;;;;3.45;1.98;;;;;;;12.24;48.13;94222.53;4991864;28;20148;-85
2023/10/30 00:50:23;;;;;;;5.68;1.70;;;;;;;12.41;48.34;94259.13;4994082;28;20030;-85
2023/10/30 00:52:49;;;;;;;4.75;1.80;;;;;;;11.61;48.52;94137.81;4993816;28;20030;-84
2023/10/30 00:55:14;;;;;;;4.85;1.88;;;;;;;12.06;48.85;94228.19;4986050;28;20038;-85
2023/10/30 00:57:40;;;;;;;2.83;1.60;;;;;;;12.22;49.59;94255.97;4993322;28;20022;-85
2023/10/30 01:00:06;;;;;;;3.53;2.10;;;;;;;12.26;48.92;94272.91;4991424;28;20034;-84
2023/10/30 01:02:31;;;;;;;8.55;3.13;;;;;;;12.07;49.38;94253.75;4991209;28;20038;-85
2023/10/30 01:04:57;;;;;;;10.10;3.88;;;;;;;12.12;49.18;94261.59;4998544;28;20026;-85
2023/10/30 01:07:23;;;;;;;11.18;3.42;;;;;;;12.00;49.29;94244.31;4994135;28;20045;-85
2023/10/30 01:09:49;;;;;;;8.20;3.35;;;;;;;12.24;48.85;94259.88;5003133;28;20026;-85
2023/10/30 01:12:14;;;;;;;7.80;2.60;;;;;;;12.16;48.76;94257.22;5006982;28;20410;-85
2023/10/30 01:14:40;;;;;;;5.20;2.50;;;;;;;11.54;49.03;94164.91;4995604;28;20033;-85
2023/10/30 01:17:05;;;;;;;6.90;2.28;;;;;;;11.94;49.18;94234.88;5000429;28;20042;-85
2023/10/30 01:19:31;;;;;;;5.60;2.05;;;;;;;12.00;49.00;94241.66;4997379;28;20030;-85
2023/10/30 01:21:56;;;;;;;4.07;1.60;;;;;;;11.18;49.11;94133.13;4993485;28;20405;-85
2023/10/30 01:24:21;;;;;;;6.80;2.30;;;;;;;11.84;49.31;94235.19;4995085;28;20635;-85
2023/10/30 01:26:47;;;;;;;5.28;2.50;;;;;;;11.74;49.31;94214.16;4992491;28;20037;-85
2023/10/30 01:29:12;;;;;;;5.45;2.65;;;;;;;11.40;49.20;94161.53;4994660;28;20074;-85
2023/10/30 01:31:37;;;;;;;6.68;3.85;;;;;;;11.92;49.35;94242.44;4992150;28;21565;-85
2023/10/30 01:34:03;;;;;;;6.57;1.70;;;;;;;11.91;49.00;94234.72;4992170;28;20083;-85
2023/10/30 01:36:30;;;;;;;3.03;1.77;;;;;;;11.77;49.00;94202.88;4992191;28;20088;-85
2023/10/30 01:38:55;;;;;;;5.93;2.22;;;;;;;11.83;49.13;94224.84;4993371;28;20038;-85
2023/10/30 01:41:21;;;;;;;2.75;1.80;;;;;;;11.68;49.23;94204.75;4999210;28;20191;-85
2023/10/30 01:43:46;;;;;;;3.83;1.90;;;;;;;11.89;49.44;94251.03;4992788;28;20499;-85
2023/10/30 01:46:12;;;;;;;2.83;1.73;;;;;;;11.68;49.42;94222.63;4985466;28;20541;-85
2023/10/30 01:48:37;;;;;;;4.00;1.30;;;;;;;11.63;49.88;94228.88;4994632;28;20784;-84
2023/10/30 01:51:05;;;;;;;3.88;1.83;;;;;;;11.75;49.69;94253.03;5022272;28;20045;-85
2023/10/30 01:53:32;;;;;;;5.45;1.90;;;;;;;11.87;50.05;94260.44;4994400;28;20080;-85
2023/10/30 01:55:59;;;;;;;3.42;1.77;;;;;;;11.80;50.36;94247.56;4993295;28;20034;-84
2023/10/30 01:58:25;;;;;;;2.78;1.77;;;;;;;11.67;50.22;94243.13;4996307;28;20429;-85
2023/10/30 02:00:51;;;;;;;4.18;1.35;;;;;;;11.50;50.11;94235.84;4995877;28;20487;-85
2023/10/30 02:03:17;;;;;;;3.92;1.52;;;;;;;11.74;50.34;94271.97;4999342;28;20106;-85
2023/10/30 02:05:43;;;;;;;4.30;2.45;;;;;;;11.80;50.22;94271.53;4995868;28;20034;-85
2023/10/30 02:08:10;;;;;;;5.85;1.85;;;;;;;11.45;50.24;94221.88;4998940;28;20173;-84
2023/10/30 02:10:36;;;;;;;3.83;1.48;;;;;;;11.64;50.39;94265.06;4995890;28;20034;-85
2023/10/30 02:13:07;;;;;;;3.58;1.40;;;;;;;11.49;50.48;94246.81;4996158;28;20475;-84
2023/10/30 02:15:33;;;;;;;1.92;1.48;;;;;;;11.38;50.70;94232.97;4999251;28;20363;-85
2023/10/30 02:17:58;;;;;;;1.85;1.60;;;;;;;11.51;50.45;94241.97;4993851;28;20858;-85
2023/10/30 02:20:24;;;;;;;3.63;1.40;;;;;;;11.59;50.77;94273.19;4998731;28;20026;-84
2023/10/30 02:22:49;;;;;;;2.13;1.50;;;;;;;11.58;50.89;94275.09;4995619;28;20076;-84
2023/10/30 02:25:19;;;;;;;5.18;1.50;;;;;;;11.43;51.17;94248.03;4995290;28;20125;-85
2023/10/30 02:27:44;;;;;;;2.45;1.60;;;;;;;11.40;51.35;94260.06;4998770;28;20026;-84
2023/10/30 02:30:11;;;;;;;8.68;2.05;;;;;;;11.38;51.32;94270.28;4996820;28;20103;-85
2023/10/30 02:32:42;;;;;;;9.52;2.33;;;;;;;11.32;51.60;94266.16;4996922;28;20429;-85
2023/10/30 02:35:13;;;;;;;2.22;1.65;;;;;;;11.24;52.02;94269.56;4995725;28;21100;-85
2023/10/30 02:37:39;;;;;;;2.35;1.50;;;;;;;11.28;51.56;94245.78;4992876;28;20061;-84
2023/10/30 02:40:05;;;;;;;4.38;1.70;;;;;;;11.46;51.77;94285.50;4998012;28;20208;-84
2023/10/30 02:42:30;;;;;;;3.30;1.40;;;;;;;11.40;51.97;94288.59;4993292;28;20151;-85
2023/10/30 02:44:56;;;;;;;3.25;1.40;;;;;;;11.09;51.83;94235.34;4996356;28;20058;-85
2023/10/30 02:47:23;;;;;;;1.45;1.30;;;;;;;11.17;51.88;94254.03;4996845;28;20026;-84
2023/10/30 02:49:51;;;;;;;2.15;1.45;;;;;;;10.53;51.94;94148.16;4996506;28;20048;-85
2023/10/30 02:52:18;;;;;;;3.08;1.60;;;;;;;11.33;51.50;94261.63;4997689;28;20034;-85
2023/10/30 02:54:44;;;;;;;3.35;1.65;;;;;;;11.45;51.88;94277.78;4995522;28;20510;-85
2023/10/30 02:57:10;;;;;;;10.18;2.25;;;;;;;11.45;51.58;94267.16;4998280;28;20571;-85
2023/10/30 02:59:35;;;;;;;6.18;1.58;;;;;;;11.47;51.69;94246.31;4997745;28;20034;-84
2023/10/30 03:02:02;;;;;;;3.88;1.30;;;;;;;11.41;51.60;94263.53;4998607;28;20044;-84
2023/10/30 03:04:28;;;;;;;4.43;1.90;;;;;;;11.43;51.63;94272.00;4997713;28;20097;-84
2023/10/30 03:06:54;;;;;;;3.83;1.50;;;;;;;10.95;51.34;94192.88;4995403;28;20032;-85
2023/10/30 03:09:20;;;;;;;1.75;1.27;;;;;;;11.11;51.76;94222.50;4997641;28;20125;-85
2023/10/30 03:11:45;;;;;;;6.47;1.85;;;;;;;11.47;51.60;94275.63;4995801;28;20046;-84
2023/10/30 03:14:10;;;;;;;4.70;1.85;;;;;;;10.36;51.43;94081.56;4994351;28;20038;-85
2023/10/30 03:16:36;;;;;;;5.53;1.60;;;;;;;11.36;51.39;94266.31;5000681;28;20794;-85
2023/10/30 03:19:02;;;;;;;3.88;1.67;;;;;;;11.08;51.42;94231.91;4995653;28;20030;-84
2023/10/30 03:21:30;;;;;;;4.82;1.42;;;;;;;11.44;51.23;94284.25;4999131;28;20037;-85
2023/10/30 03:23:55;;;;;;;8.07;1.70;;;;;;;11.43;51.25;94283.44;4993237;28;20030;-85
2023/10/30 03:26:21;;;;;;;3.60;1.38;;;;;;;11.39;51.48;94284.38;5000088;28;20071;-84
2023/10/30 03:28:46;;;;;;;6.18;2.38;;;;;;;11.33;51.68;94283.72;4994242;28;20124;-84
2023/10/30 03:31:11;;;;;;;4.80;1.75;;;;;;;10.99;51.74;94252.38;4996490;28;20026;-85
2023/10/30 03:33:37;;;;;;;7.30;2.03;;;;;;;10.56;51.76;94184.81;5028036;28;20018;-85
2023/10/30 03:36:03;;;;;;;3.67;1.45;;;;;;;11.28;51.78;94294.50;4994949;28;20034;-84
2023/10/30 03:38:29;;;;;;;3.45;1.48;;;;;;;10.60;51.84;94183.09;4994980;28;20045;-84
2023/10/30 03:40:54;;;;;;;6.30;2.15;;;;;;;10.95;51.52;94232.78;4994646;28;20046;-85
2023/10/30 03:43:20;;;;;;;6.03;1.67;;;;;;;11.08;51.68;94261.19;4997930;28;20565;-84
2023/10/30 03:45:45;;;;;;;4.28;1.40;;;;;;;11.17;51.61;94275.31;4993698;28;20108;-85
2023/10/30 03:48:11;;;;;;;4.10;1.77;;;;;;;11.17;51.63;94274.53;4996465;28;20030;-84
2023/10/30 03:50:36;;;;;;;4.72;2.38;;;;;;;11.02;51.85;94265.06;4995729;28;20042;-85
2023/10/30 03:53:03;;;;;;;4.50;2.30;;;;;;;10.98;51.58;94265.97;4998881;28;20026;-84
2023/10/30 03:55:28;;;;;;;4.00;2.47;;;;;;;10.92;51.72;94257.31;4999009;28;20101;-84
2023/10/30 03:57:53;;;;;;;3.53;2.03;;;;;;;11.12;51.96;94288.75;4994065;28;20447;-85
2023/10/30 04:00:19;;;;;;;3.67;2.20;;;;;;;10.86;51.88;94242.56;4999508;28;20038;-85
2023/10/30 04:02:44;;;;;;;5.22;1.50;;;;;;;10.72;52.08;94232.00;5000242;28;20061;-85
2023/10/30 04:05:10;;;;;;;4.57;1.67;;;;;;;10.95;52.40;94255.94;4993128;28;20045;-85
2023/10/30 04:07:35;;;;;;;3.38;1.83;;;;;;;10.94;52.14;94254.38;4993088;28;20065;-85
2023/10/30 04:10:01;;;;;;;3.47;1.98;;;;;;;11.00;52.14;94259.25;4995961;28;20026;-85
2023/10/30 04:12:27;;;;;;;4.32;1.63;;;;;;;10.92;52.28;94251.22;4998209;28;20038;-85
2023/10/30 04:14:52;;;;;;;1.42;1.10;;;;;;;10.85;52.58;94272.94;4995058;28;20088;-85
2023/10/30 04:17:18;;;;;;;3.92;1.48;;;;;;;10.70;52.32;94236.06;4995979;28;20033;-85
2023/10/30 04:19:44;;;;;;;3.88;1.90;;;;;;;10.94;52.33;94289.75;4994891;28;20066;-84
2023/10/30 04:22:09;;;;;;;5.18;2.40;;;;;;;10.84;52.74;94274.03;4993181;28;20034;-85
2023/10/30 04:24:35;;;;;;;4.05;1.60;;;;;;;10.89;52.73;94276.56;4994649;28;20408;-84
2023/10/30 04:27:00;;;;;;;6.38;2.35;;;;;;;10.70;52.75;94266.13;4996755;28;20040;-85
2023/10/30 04:29:26;;;;;;;4.63;1.80;;;;;;;10.86;52.67;94282.47;4994918;28;20044;-85
2023/10/30 04:31:51;;;;;;;7.55;1.85;;;;;;;10.88;52.92;94287.50;4992022;28;20038;-84
2023/10/30 04:34:18;;;;;;;3.72;1.73;;;;;;;10.61;52.55;94243.19;4996893;28;20033;-85
2023/10/30 04:36:44;;;;;;;4.53;1.80;;;;;;;10.77;52.87;94255.03;4994974;28;20511;-84
2023/10/30 04:39:10;;;;;;;6.50;2.05;;;;;;;10.76;53.18;94269.41;4999428;28;20042;-85
2023/10/30 04:41:36;;;;;;;3.65;1.88;;;;;;;10.73;53.13;94262.06;4993060;28;20065;-85
2023/10/30 04:44:02;;;;;;;2.70;1.73;;;;;;;10.72;53.11;94276.44;4993194;28;20034;-85
2023/10/30 04:46:28;;;;;;;4.45;2.03;;;;;;;10.05;53.29;94175.31;4994717;28;20040;-84
2023/10/30 04:48:53;;;;;;;13.40;2.15;;;;;;;10.54;53.37;94250.81;4990695;28;20579;-85
2023/10/30 04:51:19;;;;;;;6.50;1.95;;;;;;;10.11;52.90;94179.44;5028016;28;20050;-86
2023/10/30 04:53:44;;;;;;;9.20;1.60;;;;;;;10.57;53.55;94276.78;4991185;28;20116;-85
2023/10/30 04:56:10;;;;;;;3.08;1.90;;;;;;;10.29;53.25;94239.63;5000125;28;20140;-85
2023/10/30 04:58:35;;;;;;;4.35;2.05;;;;;;;10.37;53.40;94256.00;4992111;28;20045;-85
2023/10/30 05:01:12;;;;;;;5.55;2.58;;;;;;;10.41;54.02;94273.72;4994492;28;20026;-83
2023/10/30 05:03:39;;;;;;;9.15;2.45;;;;;;;10.52;53.81;94285.66;4998191;28;20038;-84
2023/10/30 05:06:05;;;;;;;4.18;2.45;;;;;;;10.51;53.81;94283.31;4992587;28;20034;-84
2023/10/30 05:08:31;;;;;;;5.20;2.58;;;;;;;10.26;53.81;94266.81;4992648;28;20510;-84
2023/10/30 05:10:59;;;;;;;4.03;2.75;;;;;;;10.43;53.69;94274.19;4994554;28;20041;-84
2023/10/30 05:13:24;;;;;;;4.60;2.17;;;;;;;10.57;53.53;94293.53;4998231;28;20763;-84
2023/10/30 05:15:50;;;;;;;3.35;2.10;;;;;;;10.27;54.06;94257.75;4994163;28;20038;-84
2023/10/30 05:18:21;;;;;;;4.97;2.15;;;;;;;10.34;54.02;94278.59;4992600;28;20118;-85
2023/10/30 05:20:46;;;;;;;2.97;2.20;;;;;;;10.26;54.19;94250.88;4996657;28;20431;-84
2023/10/30 05:23:12;;;;;;;3.28;2.50;;;;;;;10.50;54.14;94303.03;4997564;28;20041;-85
2023/10/30 05:25:37;;;;;;;5.10;2.67;;;;;;;10.60;53.99;94305.47;4992841;28;20033;-84
2023/10/30 05:28:03;;;;;;;11.10;3.70;;;;;;;10.33;54.35;94277.81;4992361;28;20442;-85
2023/10/30 05:30:30;;;;;;;8.48;2.60;;;;;;;10.67;54.40;94321.78;4996945;28;20019;-84
2023/10/30 05:32:56;;;;;;;7.70;2.55;;;;;;;10.76;54.78;94319.22;4992593;28;20063;-84
2023/10/30 05:35:21;;;;;;;5.90;2.50;;;;;;;10.72;54.22;94300.38;4997005;28;20034;-84
2023/10/30 05:37:47;;;;;;;7.47;2.15;;;;;;;10.62;54.42;94295.28;4989232;28;20444;-84
2023/10/30 05:40:12;;;;;;;8.18;2.75;;;;;;;10.80;54.81;94328.94;4990949;28;20029;-84
2023/10/30 05:42:38;;;;;;;4.03;2.45;;;;;;;10.70;54.12;94294.59;4996352;28;20622;-85
2023/10/30 05:45:04;;;;;;;9.45;3.75;;;;;;;10.70;54.82;94310.56;4998199;28;20041;-84
2023/10/30 05:47:30;;;;;;;5.68;2.83;;;;;;;10.86;55.14;94321.59;4996993;28;20034;-84
2023/10/30 05:49:56;;;;;;;4.47;2.90;;;;;;;10.83;54.80;94316.91;4993069;28;20088;-84
2023/10/30 05:52:21;;;;;;;4.82;2.83;;;;;;;11.00;54.99;94333.00;4998459;28;20061;-85
2023/10/30 05:54:47;;;;;;;11.55;4.32;;;;;;;11.10;54.93;94349.50;4996244;28;20766;-85
2023/10/30 05:57:13;;;;;;;15.27;5.97;;;;;;;11.07;54.94;94323.50;4994999;28;20030;-85
2023/10/30 05:59:39;;;;;;;13.77;6.68;;;;;;;11.07;54.16;94307.53;4995670;28;20136;-85
2023/10/30 06:02:05;;;;;;;16.50;9.43;;;;;;;10.87;54.29;94262.75;4995588;28;20121;-84
2023/10/30 06:04:30;;;;;;;13.68;5.57;;;;;;;11.37;53.91;94353.13;5003387;28;20026;-84
2023/10/30 06:06:56;;;;;;;15.23;5.60;;;;;;;11.35;53.82;94342.75;4994067;28;20040;-85
2023/10/30 06:09:21;;;;;;;14.52;6.00;;;;;;;10.97;53.55;94286.47;4994122;28;20062;-84
2023/10/30 06:11:48;;;;;;;12.32;6.00;;;;;;;11.05;53.63;94279.66;4995415;28;20038;-85
2023/10/30 06:14:14;;;;;;;11.18;5.57;;;;;;;11.37;53.22;94315.84;4998010;28;20034;-84
2023/10/30 06:16:40;;;;;;;10.63;6.68;;;;;;;11.35;53.05;94299.38;4994558;28;20779;-85
2023/10/30 06:19:06;;;;;;;11.07;6.68;;;;;;;11.33;53.38;94305.03;4997521;28;20042;-84
2023/10/30 06:21:31;;;;;;;17.05;6.45;;;;;;;11.84;52.63;94349.78;4994408;28;20022;-84
2023/10/30 06:23:57;;;;;;;13.93;5.57;;;;;;;11.81;53.10;94342.41;4996914;28;20946;-85
2023/10/30 06:26:22;;;;;;;17.33;6.25;;;;;;;12.00;53.23;94361.59;4997421;28;20039;-85
2023/10/30 06:28:47;;;;;;;13.25;6.28;;;;;;;11.49;53.02;94258.22;5002010;28;20035;-84
2023/10/30 06:31:17;;;;;;;15.88;6.63;;;;;;;12.01;52.29;94320.53;4996606;28;20049;-84
2023/10/30 06:33:43;;;;;;;14.07;6.45;;;;;;;11.86;52.88;94288.19;4995717;28;20650;-85
2023/10/30 06:36:09;;;;;;;10.80;6.00;;;;;;;12.20;52.54;94328.28;4995743;28;20093;-84
2023/10/30 06:38:35;;;;;;;10.45;5.85;;;;;;;12.51;52.24;94362.84;4994943;28;20371;-87
2023/10/30 06:41:02;;;;;;;15.05;7.82;;;;;;;12.04;52.00;94317.25;4992333;28;20037;-85
2023/10/30 06:43:28;;;;;;;15.02;5.97;;;;;;;12.30;52.46;94321.84;4997061;28;20493;-85
2023/10/30 06:46:03;;;;;;;11.70;6.30;;;;;;;12.36;51.19;94315.28;4992508;28;20582;-85
2023/10/30 06:48:28;;;;;;;;;;;;;;;12.74;51.31;94364.31;5008906;28;20557;-85
2023/10/30 06:50:55;;;;;;;12.10;6.43;;;;;;;12.70;51.67;94335.91;4992741;28;19917;-86
2023/10/30 06:53:20;;;;;;;16.73;6.50;;;;;;;12.50;51.58;94315.94;4996280;28;20129;-85
2023/10/30 06:55:46;;;;;;;12.27;7.00;;;;;;;12.19;50.94;94244.03;4991738;28;20145;-86
2023/10/30 06:58:11;;;;;;;13.52;6.47;;;;;;;12.72;50.76;94317.69;4997294;28;20049;-86
2023/10/30 07:00:37;;;;;;;16.70;6.97;;;;;;;12.98;50.16;94341.72;4994201;28;20025;-85
2023/10/30 07:03:02;;;;;;;10.68;6.30;;;;;;;12.86;50.94;94319.09;4994596;28;20032;-85
2023/10/30 07:05:28;;;;;;;15.20;6.47;;;;;;;13.03;50.77;94331.66;4994426;28;20038;-84
2023/10/30 07:07:58;;;;;;;10.00;7.07;;;;;;;13.21;51.37;94357.25;4993291;28;20081;-86
2023/10/30 07:10:23;;;;;;;17.98;7.07;;;;;;;13.16;51.17;94348.59;4992808;28;20041;-85
2023/10/30 07:12:48;;;;;;;14.05;8.13;;;;;;;13.13;51.23;94317.19;4991710;28;21009;-85
2023/10/30 07:15:15;;;;;;;13.63;7.00;;;;;;;13.35;51.04;94341.03;4987761;28;20391;-85
2023/10/30 07:17:41;;;;;;;19.05;7.60;;;;;;;13.56;50.57;94365.22;4992024;28;20378;-85
2023/10/30 07:20:06;;;;;;;16.17;6.80;;;;;;;13.52;49.17;94340.22;5018190;28;20502;-84
2023/10/30 07:22:32;;;;;;;11.40;5.75;;;;;;;13.61;49.33;94352.50;4984254;28;20030;-85
2023/10/30 07:24:59;;;;;;;12.23;5.63;;;;;;;13.35;49.03;94337.59;4988780;28;20058;-84
2023/10/30 07:27:25;;;;;;;14.40;7.13;;;;;;;13.56;48.94;94347.28;4988153;28;20465;-85
2023/10/30 07:29:53;;;;;;;13.02;5.55;;;;;;;12.97;48.88;94324.13;4987359;28;20057;-84
2023/10/30 07:32:22;;;;;;;10.27;4.57;;;;;;;13.37;49.48;94349.53;4987325;28;20063;-84
2023/10/30 07:34:52;;;;;;;10.82;4.30;;;;;;;12.01;48.90;94143.81;4985750;28;20042;-85
2023/10/30 07:37:18;;;;;;;8.70;4.30;;;;;;;13.64;47.99;94359.09;5013731;28;20160;-84
2023/10/30 07:39:44;;;;;;;10.00;5.35;;;;;;;13.12;48.22;94299.59;4985693;28;20032;-85
2023/10/30 07:42:10;;;;;;;13.80;5.20;;;;;;;12.88;48.79;94263.53;4984158;28;20487;-85
2023/10/30 07:44:36;;;;;;;14.13;5.38;;;;;;;13.39;47.77;94320.63;4985808;28;20038;-85
2023/10/30 07:47:02;;;;;;;10.68;5.40;;;;;;;13.79;46.97;94352.47;4986566;28;20072;-85
2023/10/30 07:49:30;;;;;;;12.68;5.35;;;;;;;13.75;47.10;94334.38;4982723;28;20092;-85
2023/10/30 07:51:56;;;;;;;11.65;5.72;;;;;;;13.61;47.22;94301.72;4985726;28;20117;-84
2023/10/30 07:54:22;;;;;;;10.18;5.13;;;;;;;13.57;47.28;94306.09;4986106;28;20416;-85
2023/10/30 07:56:47;;;;;;;12.32;5.72;;;;;;;13.45;46.80;94283.81;4981841;28;20045;-87
2023/10/30 07:59:13;;;;;;;14.05;6.28;;;;;;;13.77;46.62;94346.63;4990960;28;20034;-86
2023/10/30 08:01:41;;;;;;;14.95;5.35;;;;;;;13.78;46.69;94346.31;4983920;28;20112;-85
2023/10/30 08:04:09;;;;;;;14.32;5.47;;;;;;;13.38;45.75;94296.88;4987442;28;20033;-85
2023/10/30 08:06:35;;;;;;;13.98;5.80;;;;;;;13.61;46.71;94360.50;4984271;28;20026;-86
2023/10/30 08:09:01;;;;;;;10.02;5.75;;;;;;;13.54;46.39;94338.81;4982189;28;20529;-86
2023/10/30 08:11:27;;;;;;;15.38;6.20;;;;;;;13.71;46.55;94322.75;4983082;28;20088;-85
2023/10/30 08:13:53;;;;;;;16.40;6.22;;;;;;;13.09;47.28;94222.81;4984744;28;20380;-86
2023/10/30 08:16:21;;;;;;;14.35;6.15;;;;;;;13.36;47.17;94309.78;4983402;28;20127;-85
2023/10/30 08:18:46;;;;;;;14.35;6.15;;;;;;;13.88;46.93;94331.81;4983956;28;20149;-86
2023/10/30 08:21:13;;;;;;;13.85;6.30;;;;;;;14.08;47.34;94337.22;4983447;28;20311;-86
2023/10/30 08:23:39;;;;;;;14.63;6.97;;;;;;;13.62;46.67;94233.81;4982161;28;20038;-85
2023/10/30 08:26:08;;;;;;;11.43;6.60;;;;;;;14.36;46.59;94347.47;4982611;28;20485;-87
2023/10/30 08:28:37;;;;;;;17.63;7.68;;;;;;;13.96;46.13;94274.84;4979613;28;20047;-86
2023/10/30 08:31:04;;;;;;;14.73;7.90;;;;;;;14.61;45.34;94349.25;5012737;28;20029;-86
2023/10/30 08:33:30;;;;;;;13.63;6.97;;;;;;;14.54;45.33;94323.00;4980856;28;20026;-86
2023/10/30 08:35:55;;;;;;;12.85;7.55;;;;;;;14.47;45.61;94303.94;4982215;28;20038;-87
2023/10/30 08:38:21;;;;;;;15.23;8.40;;;;;;;14.02;45.73;94212.84;4980671;28;20034;-86
2023/10/30 08:40:47;;;;;;;10.40;6.05;;;;;;;14.12;45.34;94230.38;4985365;28;20669;-86
2023/10/30 08:43:12;;;;;;;15.65;8.10;;;;;;;13.86;45.35;94206.47;4980626;28;20033;-86
2023/10/30 08:45:38;;;;;;;15.10;8.55;;;;;;;14.71;45.44;94322.09;4981343;28;20026;-86
2023/10/30 08:48:05;;;;;;;21.10;6.07;;;;;;;15.01;46.13;94349.56;5015533;28;20037;-85
2023/10/30 08:50:34;;;;;;;16.48;7.40;;;;;;;13.67;46.37;94149.97;4984271;28;20518;-86
2023/10/30 08:53:07;;;;;;;11.52;5.75;;;;;;;14.04;45.44;94180.41;4986491;28;20273;-84
2023/10/30 08:55:32;;;;;;;15.75;6.35;;;;;;;15.18;44.67;94338.72;5014353;28;20041;-84
2023/10/30 08:57:57;;;;;;;10.13;6.25;;;;;;;14.78;45.33;94278.72;4984831;28;20027;-84
2023/10/30 09:00:23;;;;;;;12.73;5.80;;;;;;;15.24;46.35;94334.72;4993995;28;20049;-85
2023/10/30 09:02:48;;;;;;;10.63;6.53;;;;;;;14.45;45.82;94206.38;4990349;28;20034;-85
2023/10/30 09:05:15;;;;;;;11.00;6.07;;;;;;;15.10;46.68;94307.44;4997909;28;20042;-86
2023/10/30 09:07:43;;;;;;;15.77;6.55;;;;;;;14.87;45.78;94237.38;4995178;28;21285;-86
2023/10/30 09:10:08;;;;;;;11.93;6.45;;;;;;;15.42;46.00;94330.78;4997171;28;20034;-84
2023/10/30 09:12:34;;;;;;;11.38;6.15;;;;;;;15.42;46.29;94317.38;5000807;28;20033;-85
2023/10/30 09:14:59;;;;;;;12.90;5.35;;;;;;;15.42;46.56;94298.59;4997293;28;20038;-84
2023/10/30 09:17:25;;;;;;;13.48;5.60;;;;;;;15.70;46.48;94314.09;4989836;28;20072;-85
2023/10/30 09:19:51;;;;;;;8.27;5.82;;;;;;;15.90;46.12;94314.03;4990076;28;20038;-84
2023/10/30 09:22:16;;;;;;;11.93;6.03;;;;;;;15.90;45.43;94319.38;4995798;28;20096;-84
2023/10/30 09:24:42;;;;;;;9.45;5.55;;;;;;;15.85;45.70;94313.44;5000931;28;20030;-85
2023/10/30 09:27:09;;;;;;;18.08;5.57;;;;;;;16.10;45.37;94312.34;5000453;28;20065;-84
2023/10/30 09:29:35;;;;;;;11.68;5.63;;;;;;;15.93;45.85;94317.94;4993752;28;20034;-84
2023/10/30 09:32:03;;;;;;;11.73;5.47;;;;;;;15.86;45.65;94261.38;5004063;28;20048;-85
2023/10/30 09:34:29;;;;;;;14.80;6.70;;;;;;;16.24;44.92;94306.66;4985797;28;20034;-84
2023/10/30 09:36:54;;;;;;;13.38;5.85;;;;;;;16.23;45.69;94276.34;4991084;28;20050;-84
2023/10/30 09:39:19;;;;;;;11.50;5.00;;;;;;;16.25;46.09;94276.78;4987969;28;20072;-84
2023/10/30 09:41:45;;;;;;;9.63;5.72;;;;;;;16.48;45.16;94290.53;4990428;28;20537;-84
2023/10/30 09:44:10;;;;;;;12.88;5.75;;;;;;;16.47;45.50;94293.59;4989369;28;20034;-84
2023/10/30 09:46:39;;;;;;;15.55;5.00;;;;;;;16.54;44.86;94288.41;4988301;28;20050;-84
2023/10/30 09:49:06;;;;;;;10.88;4.45;;;;;;;16.09;44.48;94230.28;4989056;28;20029;-85
2023/10/30 09:51:32;;;;;;;11.70;3.92;;;;;;;16.09;43.89;94203.47;4990387;28;20466;-84
2023/10/30 09:53:59;;;;;;;9.05;3.78;;;;;;;16.37;44.97;94245.72;4993853;28;20104;-84
2023/10/30 09:56:26;;;;;;;9.23;3.65;;;;;;;16.12;44.75;94213.53;4989960;28;20028;-84
2023/10/30 09:58:52;;;;;;;11.18;4.03;;;;;;;16.57;44.34;94258.22;4993517;28;20601;-84
2023/10/30 10:01:19;;;;;;;14.50;4.40;;;;;;;16.58;44.31;94267.81;4992949;28;20038;-84
2023/10/30 10:03:44;;;;;;;10.52;4.35;;;;;;;16.23;44.68;94224.59;4993264;28;20030;-85
2023/10/30 10:06:10;;;;;;;10.25;3.92;;;;;;;16.59;44.91;94264.00;5003960;28;20099;-85
2023/10/30 10:08:36;;;;;;;7.68;3.78;;;;;;;16.54;43.99;94240.09;5037214;28;20034;-85
2023/10/30 10:11:05;;;;;;;11.05;3.70;;;;;;;16.76;44.68;94242.25;4998705;28;20038;-85
2023/10/30 10:13:33;;;;;;;13.50;3.97;;;;;;;16.79;44.07;94220.09;4995953;28;20577;-84
2023/10/30 10:16:01;;;;;;;7.38;3.38;;;;;;;16.84;44.03;94233.28;4995663;28;20030;-85
2023/10/30 10:18:34;;;;;;;6.45;2.90;;;;;;;16.93;43.90;94231.22;4992106;28;20113;-85
2023/10/30 10:21:03;;;;;;;6.22;2.83;;;;;;;16.72;43.63;94198.41;5010467;28;20596;-84
2023/10/30 10:23:32;;;;;;;5.78;2.90;;;;;;;16.92;43.56;94188.56;4997255;28;20118;-85
2023/10/30 10:25:59;;;;;;;8.13;3.00;;;;;;;16.21;43.13;94088.06;4991514;28;20114;-85
2023/10/30 10:28:26;;;;;;;6.45;2.22;;;;;;;17.27;42.38;94218.31;4990399;28;20045;-85
2023/10/30 10:30:53;;;;;;;13.65;3.63;;;;;;;17.40;42.34;94222.50;5008424;28;20041;-85
2023/10/30 10:33:37;;;;;;;6.28;2.22;;;;;;;17.57;42.20;94222.94;5022913;28;20034;-84
2023/10/30 10:36:04;;;;;;;4.38;1.85;;;;;;;17.76;41.65;94218.75;4994556;28;20038;-85
2023/10/30 10:38:31;;;;;;;5.43;2.28;;;;;;;17.77;40.76;94186.13;4988685;28;20104;-86
2023/10/30 10:40:57;;;;;;;11.73;2.80;;;;;;;17.82;40.46;94202.00;4984835;28;20041;-85
2023/10/30 10:43:25;;;;;;;7.88;2.40;;;;;;;17.89;40.96;94210.25;4982360;28;20149;-85
2023/10/30 10:45:52;;;;;;;9.80;4.00;;;;;;;17.65;40.45;94180.84;4985667;28;20026;-85
2023/10/30 10:48:18;;;;;;;12.10;2.60;;;;;;;17.85;40.14;94193.25;4984866;28;20061;-85
2023/10/30 10:50:46;;;;;;;7.03;2.10;;;;;;;18.08;40.07;94211.47;4982392;28;20034;-85
2023/10/30 10:53:12;;;;;;;4.47;1.83;;;;;;;18.14;38.64;94202.00;4986348;28;20034;-85
2023/10/30 10:55:43;;;;;;;6.60;2.42;;;;;;;17.82;38.57;94144.72;4987158;28;20304;-84
2023/10/30 10:58:17;;;;;;;7.93;3.60;;;;;;;17.78;40.40;94163.50;4983847;28;20158;-84
2023/10/30 11:00:51;;;;;;;12.43;3.58;;;;;;;18.00;40.37;94191.69;4983547;28;20071;-84
2023/10/30 11:03:18;;;;;;;7.60;3.03;;;;;;;18.15;40.15;94187.38;4986413;28;20042;-85
2023/10/30 11:05:48;;;;;;;11.55;3.65;;;;;;;17.91;40.27;94156.88;4994592;28;20125;-85
2023/10/30 11:08:28;;;;;;;5.03;2.88;;;;;;;17.56;40.44;94115.69;4984280;28;20518;-85
2023/10/30 11:11:17;;;;;;;8.10;3.33;;;;;;;18.09;40.23;94167.28;4981706;28;20073;-84
2023/10/30 11:13:49;;;;;;;11.68;3.17;;;;;;;18.54;41.34;94178.22;4982660;28;20037;-85
2023/10/30 11:16:28;;;;;;;6.93;3.47;;;;;;;18.54;39.88;94164.75;4984194;28;20141;-84
2023/10/30 11:18:58;;;;;;;12.73;2.63;;;;;;;18.27;39.17;94103.81;4984670;28;20084;-84
2023/10/30 11:21:28;;;;;;;5.25;2.50;;;;;;;18.53;38.31;94141.66;4987495;28;20040;-85
2023/10/30 11:23:56;;;;;;;8.00;2.47;;;;;;;18.38;38.78;94147.91;4984845;28;20173;-85
2023/10/30 11:26:37;;;;;;;9.70;3.10;;;;;;;18.74;38.81;94168.25;4980685;28;21018;-86